Pierson, Michigan
Current Conditions -  °F | °C
As of 9:33 PM on Wednesday 22 Oct 2014 (Local Time) from KFFX Reporting Station
Clear Clear  
Wind Chill: 36°   Ceiling: Unl
Heat Index: 36°   Visibility: 10mi
Dew Point: 34°   Wind: 0mph
Humidity: 91%   Direction: NA
Pressure: 30.29"   Gusts: NA
Location:  43.32°N, 85.5°W
Report Text: KFFX 230133Z AUTO 00000KT 10SM CLR 02/01 A3029 RMK AO2 T00240011
Loading
Personal Weather Stations






























Interactive Weather Map
Tropical Storm Tracking
New forecast layout! Learn more

10-Day Weather Forecast

Advertisements
Track Severe Weather on mobile